Time;durP1;ratioP1;P1;durP2;ratioP2;P2;SDS_P1;SDS_P2;PMS_P1;PMS_P2;Temp;Humidity;BMP_temperature;BMP_pressure;BME280_temperature;BME280_humidity;BME280_pressure;Samples;Min_cycle;Max_cycle;Signal;HPM_P1;HPM_P2
2021/04/12 00:00:08;;;;;;;3.72;1.10;;;5.60;71.40;;;;;;4994121;28;20085;-74
2021/04/12 00:03:03;;;;;;;4.03;1.20;;;5.50;71.40;;;;;;4993646;28;20114;-75
2021/04/12 00:05:39;;;;;;;1.90;1.08;;;5.60;71.60;;;;;;4995148;28;20471;-74
2021/04/12 00:08:15;;;;;;;1.60;1.10;;;5.50;71.60;;;;;;4993100;28;20444;-74
2021/04/12 00:10:48;;;;;;;1.48;0.90;;;5.50;71.70;;;;;;4994782;28;20033;-75
2021/04/12 00:13:23;;;;;;;2.22;0.80;;;5.50;71.90;;;;;;4992861;28;20026;-74
2021/04/12 00:16:01;;;;;;;1.33;0.85;;;5.40;72.10;;;;;;4993478;28;20019;-74
2021/04/12 00:18:51;;;;;;;2.65;1.08;;;5.40;72.20;;;;;;4994622;28;20034;-74
2021/04/12 00:21:20;;;;;;;2.15;0.93;;;5.40;72.30;;;;;;4993740;28;20036;-73
2021/04/12 00:23:51;;;;;;;1.73;1.02;;;5.40;72.30;;;;;;4994591;28;20105;-75
2021/04/12 00:26:27;;;;;;;1.58;1.00;;;5.40;72.30;;;;;;4993936;28;20026;-74
2021/04/12 00:29:02;;;;;;;3.33;1.20;;;5.40;72.30;;;;;;4993348;28;20377;-73
2021/04/12 00:31:39;;;;;;;1.50;1.00;;;5.50;72.40;;;;;;4994507;28;20026;-74
2021/04/12 00:34:32;;;;;;;1.33;0.93;;;5.50;72.40;;;;;;4993789;28;20029;-74
2021/04/12 00:37:05;;;;;;;2.40;1.20;;;5.40;72.40;;;;;;4993528;28;20149;-74
2021/04/12 00:39:49;;;;;;;2.20;1.05;;;5.40;72.50;;;;;;4993911;28;20112;-74
2021/04/12 00:42:39;;;;;;;1.27;0.98;;;5.40;72.50;;;;;;4993721;28;20023;-75
2021/04/12 00:45:19;;;;;;;2.03;1.15;;;5.40;72.70;;;;;;4993627;28;20018;-73
2021/04/12 00:48:28;;;;;;;1.70;1.15;;;5.40;72.90;;;;;;4993966;28;20069;-73
2021/04/12 00:51:18;;;;;;;1.95;1.20;;;5.30;72.90;;;;;;4994186;28;20018;-74
2021/04/12 00:54:17;;;;;;;1.65;1.00;;;5.30;72.80;;;;;;4992905;28;20038;-74
2021/04/12 00:56:56;;;;;;;2.80;1.30;;;5.30;72.80;;;;;;4993976;28;20034;-73
2021/04/12 00:59:34;;;;;;;2.97;1.30;;;5.30;73.00;;;;;;4992074;28;20368;-74
2021/04/12 01:02:15;;;;;;;1.98;1.27;;;5.30;73.00;;;;;;4993284;28;20036;-74
2021/04/12 01:04:58;;;;;;;1.63;1.20;;;5.30;73.00;;;;;;4993641;28;20454;-74
2021/04/12 01:07:42;;;;;;;2.53;1.08;;;5.30;73.10;;;;;;4994159;28;20035;-74
2021/04/12 01:10:43;;;;;;;3.20;1.20;;;5.30;73.20;;;;;;4991951;28;20019;-74
2021/04/12 01:13:27;;;;;;;2.60;1.17;;;5.30;73.30;;;;;;4993155;28;20486;-74
2021/04/12 01:16:30;;;;;;;2.03;1.10;;;5.20;73.30;;;;;;4993757;28;20022;-73
2021/04/12 01:19:21;;;;;;;1.40;1.10;;;5.20;73.40;;;;;;4992991;28;20053;-74
2021/04/12 01:22:27;;;;;;;2.43;1.60;;;5.20;73.50;;;;;;4983246;28;20471;-75
2021/04/12 01:25:30;;;;;;;3.08;1.27;;;5.20;73.60;;;;;;4992315;28;20105;-73
2021/04/12 01:28:32;;;;;;;1.73;1.30;;;5.20;73.70;;;;;;4993258;28;20082;-74
2021/04/12 01:31:26;;;;;;;1.65;1.42;;;5.20;73.70;;;;;;4991740;28;20391;-74
2021/04/12 01:34:10;;;;;;;2.70;1.40;;;5.20;73.80;;;;;;4992080;28;20018;-74
2021/04/12 01:36:45;;;;;;;3.03;1.35;;;5.20;73.90;;;;;;4992031;28;20073;-74
2021/04/12 01:39:35;;;;;;;9.32;1.77;;;5.10;73.90;;;;;;4991130;28;20050;-74
2021/04/12 01:42:08;;;;;;;4.00;1.45;;;5.20;74.10;;;;;;4993257;28;20030;-74
2021/04/12 01:44:53;;;;;;;3.63;1.20;;;5.10;74.10;;;;;;4992810;28;20026;-74
2021/04/12 01:47:40;;;;;;;5.63;2.22;;;5.10;74.10;;;;;;4992289;28;20034;-74
2021/04/12 01:50:31;;;;;;;2.70;1.45;;;5.10;74.20;;;;;;4992521;28;20018;-73
2021/04/12 01:53:27;;;;;;;1.65;1.20;;;5.20;74.30;;;;;;4992836;28;20050;-74
2021/04/12 01:56:25;;;;;;;2.15;1.40;;;5.10;74.30;;;;;;4992863;28;20018;-73
2021/04/12 01:59:26;;;;;;;4.43;1.10;;;5.10;74.30;;;;;;4980702;28;20053;-74
2021/04/12 02:02:17;;;;;;;1.95;1.15;;;5.10;74.50;;;;;;4992631;28;20019;-74
2021/04/12 02:04:51;;;;;;;1.60;1.23;;;5.00;74.60;;;;;;4992862;28;20030;-74
2021/04/12 02:07:41;;;;;;;2.42;1.00;;;5.00;74.70;;;;;;4992001;28;20028;-73
2021/04/12 02:10:32;;;;;;;2.63;1.20;;;5.00;74.70;;;;;;4992751;28;20432;-74
2021/04/12 02:13:09;;;;;;;2.53;1.60;;;5.10;74.80;;;;;;4993694;28;20041;-74
2021/04/12 02:15:59;;;;;;;3.88;1.27;;;5.00;74.80;;;;;;4993184;28;20430;-74
2021/04/12 02:18:44;;;;;;;2.47;1.60;;;5.00;74.90;;;;;;4992116;28;20227;-74
2021/04/12 02:21:37;;;;;;;1.80;1.30;;;5.00;74.90;;;;;;4991948;28;20027;-74
2021/04/12 02:24:15;;;;;;;3.42;1.45;;;5.00;75.00;;;;;;4992693;28;20360;-74
2021/04/12 02:27:04;;;;;;;2.28;1.40;;;4.90;75.10;;;;;;4991190;28;20427;-74
2021/04/12 02:30:07;;;;;;;1.50;1.15;;;5.00;75.20;;;;;;4992354;28;20430;-74
2021/04/12 02:32:51;;;;;;;3.15;1.50;;;4.90;75.10;;;;;;4992608;28;20030;-73
2021/04/12 02:35:20;;;;;;;2.97;1.48;;;5.00;75.20;;;;;;4991496;28;20065;-73
2021/04/12 02:38:01;;;;;;;4.47;1.42;;;4.90;75.10;;;;;;4990905;28;20041;-73
2021/04/12 02:40:51;;;;;;;2.57;1.60;;;4.90;75.20;;;;;;4989869;28;20499;-74
2021/04/12 02:43:42;;;;;;;2.97;1.48;;;4.90;75.20;;;;;;4991663;28;20102;-73
2021/04/12 02:46:43;;;;;;;3.22;1.35;;;4.90;75.50;;;;;;4991671;28;20027;-73
2021/04/12 02:49:27;;;;;;;1.77;1.20;;;4.80;75.60;;;;;;4983131;28;20216;-74
2021/04/12 02:52:01;;;;;;;2.58;1.30;;;4.70;75.70;;;;;;4991911;28;20534;-73
2021/04/12 02:54:54;;;;;;;4.55;1.58;;;4.70;75.80;;;;;;4991683;28;20058;-74
2021/04/12 02:57:41;;;;;;;3.45;1.73;;;4.70;75.90;;;;;;4991632;28;20034;-74
2021/04/12 03:00:27;;;;;;;2.60;1.52;;;4.70;75.90;;;;;;4994897;28;20406;-74
2021/04/12 03:03:12;;;;;;;2.70;1.50;;;4.70;76.00;;;;;;4994799;28;20474;-74
2021/04/12 03:05:57;;;;;;;2.67;1.45;;;4.70;75.80;;;;;;4996049;28;20031;-74
2021/04/12 03:08:31;;;;;;;1.95;1.52;;;4.70;75.80;;;;;;4995769;28;20114;-74
2021/04/12 03:11:03;;;;;;;4.05;1.60;;;4.60;75.80;;;;;;4994785;28;20018;-74
2021/04/12 03:14:06;;;;;;;2.83;1.40;;;4.70;75.90;;;;;;4995372;28;20114;-73
2021/04/12 03:16:53;;;;;;;2.58;1.30;;;4.70;76.00;;;;;;4994719;28;20105;-74
2021/04/12 03:19:43;;;;;;;6.30;1.80;;;4.70;76.00;;;;;;4994863;28;20041;-74
2021/04/12 03:23:01;;;;;;;3.90;1.95;;;4.70;76.00;;;;;;4993810;28;20084;-75
2021/04/12 03:25:57;;;;;;;3.63;1.80;;;4.70;76.10;;;;;;4972451;28;20031;-75
2021/04/12 03:28:33;;;;;;;5.53;1.98;;;4.70;76.00;;;;;;4972718;28;20379;-74
2021/04/12 03:31:21;;;;;;;4.75;1.70;;;4.80;76.00;;;;;;4988866;28;20117;-74
2021/04/12 03:34:01;;;;;;;1.58;1.20;;;4.80;76.00;;;;;;4994917;28;20053;-73
2021/04/12 03:37:09;;;;;;;2.78;1.45;;;4.80;76.00;;;;;;4994713;28;20037;-73
2021/04/12 03:40:01;;;;;;;2.72;1.80;;;4.70;76.10;;;;;;4995577;28;20050;-74
2021/04/12 03:42:43;;;;;;;;;;;4.70;76.30;;;;;;4995215;28;20034;-74
2021/04/12 03:45:25;;;;;;;2.75;1.50;;;4.50;76.20;;;;;;4995211;28;19906;-74
2021/04/12 03:48:26;;;;;;;2.72;1.60;;;4.60;76.40;;;;;;4995271;28;20114;-73
2021/04/12 03:51:05;;;;;;;2.38;1.30;;;4.70;76.30;;;;;;4994946;28;20471;-74
2021/04/12 03:54:10;;;;;;;3.60;1.67;;;4.70;76.30;;;;;;4994406;28;20380;-74
2021/04/12 03:57:02;;;;;;;3.75;1.40;;;4.70;76.40;;;;;;4972762;28;20042;-74
2021/04/12 03:59:51;;;;;;;3.72;1.50;;;4.70;76.40;;;;;;4972606;28;20045;-73
2021/04/12 04:02:29;;;;;;;2.60;1.33;;;4.70;76.50;;;;;;4972565;28;20046;-73
2021/04/12 04:05:21;;;;;;;3.38;1.63;;;4.70;76.40;;;;;;4973013;28;20113;-74
2021/04/12 04:07:53;;;;;;;2.75;1.45;;;4.70;76.50;;;;;;4973214;28;20050;-73
2021/04/12 04:10:36;;;;;;;;;;;4.60;76.50;;;;;;4972364;28;20054;-71
2021/04/12 04:13:15;;;;;;;4.35;2.13;;;4.60;76.50;;;;;;4972666;28;20004;-73
2021/04/12 04:16:14;;;;;;;3.72;1.65;;;4.60;76.50;;;;;;4973020;28;20058;-72
2021/04/12 04:19:12;;;;;;;2.22;1.50;;;4.60;76.70;;;;;;4972738;28;20060;-74
2021/04/12 04:21:56;;;;;;;3.53;1.45;;;4.60;76.70;;;;;;4951259;28;20502;-72
2021/04/12 04:24:27;;;;;;;2.70;1.60;;;4.60;76.80;;;;;;4972189;28;20380;-73
2021/04/12 04:27:07;;;;;;;11.20;2.13;;;4.60;76.80;;;;;;4972781;28;20043;-73
2021/04/12 04:30:00;;;;;;;4.45;1.90;;;4.60;76.80;;;;;;4972197;28;20031;-74
2021/04/12 04:33:04;;;;;;;4.35;1.60;;;4.70;76.80;;;;;;4972100;28;20035;-74
2021/04/12 04:35:58;;;;;;;3.50;1.90;;;4.80;76.80;;;;;;4993893;28;20029;-74
2021/04/12 04:39:05;;;;;;;3.17;1.58;;;4.80;76.70;;;;;;4993227;28;20446;-73
2021/04/12 04:41:31;;;;;;;5.78;1.90;;;4.80;76.90;;;;;;4998282;28;20069;-73
2021/04/12 04:44:13;;;;;;;2.42;1.67;;;4.70;77.10;;;;;;5013313;28;20082;-72
2021/04/12 04:47:18;;;;;;;2.83;1.58;;;4.60;77.20;;;;;;5011333;28;20407;-74
2021/04/12 04:50:02;;;;;;;3.35;1.88;;;4.60;77.30;;;;;;5009823;28;20452;-73
2021/04/12 04:52:37;;;;;;;2.90;1.90;;;4.60;77.30;;;;;;5010965;28;20077;-74
2021/04/12 04:55:08;;;;;;;2.35;1.50;;;4.60;77.40;;;;;;5010678;28;20072;-73
2021/04/12 04:57:43;;;;;;;3.70;1.80;;;4.60;77.60;;;;;;5012387;28;20363;-74
2021/04/12 05:00:19;;;;;;;3.42;1.92;;;4.60;77.80;;;;;;5013488;28;20073;-73
2021/04/12 05:03:05;;;;;;;4.60;1.40;;;4.50;77.90;;;;;;5013647;28;20026;-73
2021/04/12 05:05:38;;;;;;;3.40;1.73;;;4.50;78.00;;;;;;5012367;28;20049;-73
2021/04/12 05:08:41;;;;;;;3.13;2.03;;;4.50;78.00;;;;;;5013467;28;20028;-74
2021/04/12 05:11:44;;;;;;;2.28;1.70;;;4.60;77.90;;;;;;5012957;28;20053;-74
2021/04/12 05:14:49;;;;;;;1.67;1.50;;;4.60;77.90;;;;;;5012924;28;20029;-73
2021/04/12 05:18:01;;;;;;;2.08;1.60;;;4.60;77.80;;;;;;5012513;28;20030;-74
2021/04/12 05:21:01;;;;;;;3.58;1.83;;;4.50;77.80;;;;;;4987742;28;20553;-80
2021/04/12 05:24:21;;;;;;;3.45;1.70;;;4.50;77.80;;;;;;5010697;28;20022;-81
2021/04/12 05:27:08;;;;;;;3.67;1.95;;;4.60;77.80;;;;;;4988875;28;20121;-81
2021/04/12 05:30:09;;;;;;;2.92;1.70;;;4.60;77.70;;;;;;4971698;28;20036;-79
2021/04/12 05:32:38;;;;;;;;;;;4.60;77.70;;;;;;5002500;28;20037;-79
2021/04/12 05:35:33;;;;;;;2.63;1.70;;;4.50;77.60;;;;;;5009017;28;19905;-80
2021/04/12 05:38:07;;;;;;;3.67;2.00;;;4.60;77.60;;;;;;5005509;28;20041;-79
2021/04/12 05:40:52;;;;;;;2.75;1.90;;;4.60;77.60;;;;;;5008639;28;20080;-81
2021/04/12 05:43:30;;;;;;;4.13;2.28;;;4.60;77.90;;;;;;5010386;28;20070;-77
2021/04/12 05:45:59;;;;;;;3.90;2.15;;;4.60;78.10;;;;;;5008691;28;20034;-79
2021/04/12 05:48:49;;;;;;;3.78;1.80;;;4.60;78.20;;;;;;5009140;28;20112;-74
2021/04/12 05:51:38;;;;;;;3.08;1.92;;;4.60;78.20;;;;;;5012295;28;20026;-73
2021/04/12 05:54:04;;;;;;;2.05;1.58;;;4.60;78.20;;;;;;5011029;28;20052;-73
2021/04/12 05:57:07;;;;;;;5.47;1.73;;;4.60;78.30;;;;;;5009085;28;20419;-72
2021/04/12 05:59:54;;;;;;;4.18;2.00;;;4.60;78.20;;;;;;5011584;28;20475;-72
2021/04/12 06:02:27;;;;;;;2.40;1.80;;;4.70;78.20;;;;;;5012221;28;20032;-73
2021/04/12 06:05:25;;;;;;;2.13;1.50;;;4.70;78.20;;;;;;5012636;28;20100;-73
2021/04/12 06:08:26;;;;;;;2.92;1.70;;;4.70;78.20;;;;;;5010917;28;20037;-73
2021/04/12 06:11:30;;;;;;;2.53;1.73;;;4.70;78.20;;;;;;5011175;28;20428;-72
2021/04/12 06:14:32;;;;;;;2.63;1.88;;;4.70;78.20;;;;;;5010714;28;20372;-73
2021/04/12 06:17:33;;;;;;;2.10;1.45;;;4.70;78.10;;;;;;4973865;28;20067;-72
2021/04/12 06:20:17;;;;;;;1.93;1.47;;;4.80;78.00;;;;;;4987131;28;20478;-73
2021/04/12 06:23:08;;;;;;;1.77;1.48;;;4.90;78.00;;;;;;5011363;28;20316;-73
2021/04/12 06:26:06;;;;;;;2.67;1.77;;;4.90;77.90;;;;;;5011566;28;20030;-73
2021/04/12 06:28:38;;;;;;;1.88;1.40;;;5.00;77.90;;;;;;5011204;28;20030;-73
2021/04/12 06:31:34;;;;;;;2.35;1.67;;;5.00;77.80;;;;;;5011637;28;20068;-72
2021/04/12 06:34:34;;;;;;;3.42;1.60;;;5.10;77.90;;;;;;5011786;28;20062;-73
2021/04/12 06:37:34;;;;;;;2.22;1.52;;;5.10;77.90;;;;;;5010333;28;20084;-73
2021/04/12 06:40:26;;;;;;;3.88;1.55;;;5.10;77.90;;;;;;5004164;28;20054;-73
2021/04/12 06:43:12;;;;;;;2.75;1.25;;;5.20;78.00;;;;;;5001548;28;20496;-73
2021/04/12 06:46:11;;;;;;;1.77;1.10;;;5.30;77.60;;;;;;5000141;28;20038;-73
2021/04/12 06:49:15;;;;;;;1.80;1.45;;;5.30;77.40;;;;;;5010969;28;20060;-73
2021/04/12 06:52:01;;;;;;;1.95;1.33;;;5.30;77.50;;;;;;5011259;28;20029;-73
2021/04/12 06:54:46;;;;;;;1.63;1.30;;;5.30;77.70;;;;;;5009808;28;20026;-73
2021/04/12 06:57:29;;;;;;;1.60;1.48;;;5.30;77.80;;;;;;5011592;28;20034;-73
2021/04/12 07:00:31;;;;;;;1.85;1.25;;;5.30;77.90;;;;;;5010186;28;20528;-72
2021/04/12 07:03:34;;;;;;;3.15;1.30;;;5.30;77.90;;;;;;5026880;28;20453;-73
2021/04/12 07:06:38;;;;;;;1.30;1.20;;;5.30;78.00;;;;;;5011524;28;20022;-73
2021/04/12 07:09:18;;;;;;;1.38;1.00;;;5.30;78.00;;;;;;4992140;28;20047;-73
2021/04/12 07:12:04;;;;;;;3.83;1.50;;;5.40;78.00;;;;;;5010761;28;20026;-72
2021/04/12 07:15:07;;;;;;;1.50;1.10;;;5.40;78.00;;;;;;5009648;28;20022;-74
2021/04/12 07:17:51;;;;;;;1.33;0.93;;;5.40;78.00;;;;;;5010592;28;20501;-73
2021/04/12 07:20:34;;;;;;;3.70;1.20;;;5.50;78.00;;;;;;5011531;28;20057;-73
2021/04/12 07:23:31;;;;;;;3.17;1.40;;;5.50;78.00;;;;;;5011583;28;20026;-73
2021/04/12 07:26:18;;;;;;;1.25;1.00;;;5.50;77.90;;;;;;5011554;28;20026;-73
2021/04/12 07:29:14;;;;;;;1.15;0.95;;;5.50;77.90;;;;;;5010795;28;20033;-73
2021/04/12 07:32:08;;;;;;;1.63;1.35;;;5.50;77.80;;;;;;5010735;28;20026;-73
2021/04/12 07:34:36;;;;;;;3.33;1.90;;;5.60;77.90;;;;;;5010818;28;20018;-73
2021/04/12 07:37:02;;;;;;;5.38;1.80;;;5.60;77.90;;;;;;5011305;28;20105;-73
2021/04/12 07:40:02;;;;;;;2.85;1.20;;;5.60;77.80;;;;;;5010964;28;20125;-73
2021/04/12 07:42:43;;;;;;;2.35;1.00;;;5.70;77.60;;;;;;4976264;28;20121;-73
2021/04/12 07:45:29;;;;;;;2.33;1.00;;;5.70;77.60;;;;;;5012541;28;20072;-73
2021/04/12 07:48:39;;;;;;;1.13;0.95;;;5.80;77.60;;;;;;5003654;28;20073;-74
2021/04/12 07:51:43;;;;;;;1.42;0.93;;;5.80;77.50;;;;;;5013250;28;20026;-72
2021/04/12 07:54:52;;;;;;;1.10;0.80;;;5.80;77.30;;;;;;5014762;28;20022;-73
2021/04/12 07:57:29;;;;;;;1.42;1.10;;;5.90;77.20;;;;;;4983884;28;20100;-73
2021/04/12 08:00:13;;;;;;;1.08;0.90;;;6.00;77.10;;;;;;5013936;28;20048;-72
2021/04/12 08:03:17;;;;;;;2.30;1.00;;;6.20;76.90;;;;;;5012588;28;20032;-72
2021/04/12 08:06:05;;;;;;;2.03;1.10;;;6.40;76.30;;;;;;5013046;28;20040;-73
2021/04/12 08:09:24;;;;;;;1.17;0.75;;;6.60;75.60;;;;;;5013999;28;20418;-72
2021/04/12 08:12:13;;;;;;;2.83;0.90;;;6.80;75.20;;;;;;4991646;28;20443;-73
2021/04/12 08:15:03;;;;;;;0.80;0.80;;;6.90;74.30;;;;;;4991442;28;20031;-73
2021/04/12 08:18:07;;;;;;;0.88;0.80;;;6.80;74.50;;;;;;5008115;28;20057;-72
2021/04/12 08:21:09;;;;;;;1.95;0.90;;;6.80;74.40;;;;;;5013483;28;20053;-73
2021/04/12 08:24:03;;;;;;;1.15;0.80;;;6.80;74.50;;;;;;5028615;28;20471;-73
2021/04/12 08:26:40;;;;;;;0.90;0.90;;;6.70;74.50;;;;;;5013907;28;20065;-72
2021/04/12 08:29:33;;;;;;;3.78;1.20;;;6.70;74.50;;;;;;5014352;28;20180;-72
2021/04/12 08:32:18;;;;;;;2.25;0.70;;;6.70;74.50;;;;;;5013766;28;20390;-73
2021/04/12 08:35:22;;;;;;;0.82;0.80;;;6.70;74.50;;;;;;5013328;28;20080;-73
2021/04/12 08:38:23;;;;;;;0.57;0.57;;;6.90;74.10;;;;;;5004770;28;20397;-73
2021/04/12 08:41:16;;;;;;;0.77;0.77;;;7.20;73.10;;;;;;5012703;28;20099;-72
2021/04/12 08:44:00;;;;;;;0.80;0.80;;;7.30;72.50;;;;;;5013303;28;20025;-72
2021/04/12 08:46:58;;;;;;;1.60;1.08;;;7.30;72.30;;;;;;5013908;28;20068;-73
2021/04/12 08:49:42;;;;;;;0.95;0.88;;;7.50;71.90;;;;;;5012455;28;20434;-73
2021/04/12 08:52:45;;;;;;;1.08;0.98;;;7.60;71.00;;;;;;5013425;28;20018;-73
2021/04/12 08:55:35;;;;;;;1.35;1.23;;;7.60;70.70;;;;;;5013358;28;20052;-73
2021/04/12 08:58:15;;;;;;;0.85;0.63;;;7.60;69.90;;;;;;5013635;28;20116;-73
2021/04/12 09:01:00;;;;;;;3.22;0.80;;;7.60;69.60;;;;;;5012706;28;20119;-73
2021/04/12 09:04:06;;;;;;;0.60;0.60;;;7.60;69.50;;;;;;5013763;28;20162;-73
2021/04/12 09:06:52;;;;;;;0.65;0.52;;;7.70;68.20;;;;;;5006765;28;20498;-73
2021/04/12 09:09:48;;;;;;;2.20;1.20;;;7.70;68.50;;;;;;5013541;28;20374;-73
2021/04/12 09:12:32;;;;;;;1.95;1.10;;;7.80;67.60;;;;;;5012950;28;20018;-73
2021/04/12 09:15:30;;;;;;;0.68;0.60;;;7.80;67.70;;;;;;5012520;28;20488;-73
2021/04/12 09:18:19;;;;;;;1.45;1.02;;;7.80;67.20;;;;;;5012476;28;20392;-72
2021/04/12 09:21:04;;;;;;;1.30;0.70;;;7.70;66.50;;;;;;5012505;28;20018;-73
2021/04/12 09:24:13;;;;;;;1.30;0.65;;;7.60;66.80;;;;;;5012816;28;20390;-73
2021/04/12 09:27:10;;;;;;;0.60;0.60;;;7.70;66.50;;;;;;5012324;28;20411;-73
2021/04/12 09:29:51;;;;;;;1.92;0.68;;;7.70;66.20;;;;;;5012840;28;20355;-72
2021/04/12 09:32:36;;;;;;;;;;;7.80;65.80;;;;;;5013312;28;20022;-73
2021/04/12 09:35:31;;;;;;;1.40;0.98;;;7.70;65.90;;;;;;5012780;28;19916;-73
2021/04/12 09:38:21;;;;;;;1.00;0.63;;;7.80;65.40;;;;;;5012364;28;20045;-73
2021/04/12 09:41:02;;;;;;;1.48;1.05;;;7.80;66.50;;;;;;5012434;28;20042;-73
2021/04/12 09:43:48;;;;;;;1.48;0.77;;;7.80;66.00;;;;;;5012770;28;20101;-72
2021/04/12 09:46:36;;;;;;;1.75;1.00;;;8.00;66.00;;;;;;5012397;28;20123;-73
2021/04/12 09:49:35;;;;;;;0.82;0.82;;;8.10;65.90;;;;;;5011670;28;20056;-73
2021/04/12 09:52:22;;;;;;;1.42;0.85;;;8.20;65.90;;;;;;5011890;28;20049;-73
2021/04/12 09:55:03;;;;;;;1.63;1.08;;;8.20;65.60;;;;;;5011859;28;20030;-72
2021/04/12 09:57:37;;;;;;;1.10;0.90;;;8.20;65.80;;;;;;5011009;28;20030;-73
2021/04/12 10:00:24;;;;;;;1.80;1.17;;;8.30;66.00;;;;;;5011859;28;20037;-73
2021/04/12 10:03:19;;;;;;;1.20;1.10;;;8.30;65.90;;;;;;5012018;28;20033;-74
2021/04/12 10:06:00;;;;;;;1.20;1.10;;;8.30;65.80;;;;;;5011396;28;20105;-73
2021/04/12 10:08:46;;;;;;;2.10;1.13;;;8.30;66.20;;;;;;5012107;28;20025;-74
2021/04/12 10:11:16;;;;;;;2.17;1.00;;;8.30;66.10;;;;;;5012305;28;20036;-73
2021/04/12 10:14:10;;;;;;;5.57;1.10;;;8.20;66.00;;;;;;5011741;28;20024;-72
2021/04/12 10:16:39;;;;;;;1.40;1.08;;;8.30;66.00;;;;;;5012052;28;20253;-73
2021/04/12 10:19:19;;;;;;;3.20;1.17;;;8.30;65.90;;;;;;5011529;28;20037;-73
2021/04/12 10:21:52;;;;;;;3.28;1.30;;;8.40;66.00;;;;;;5011410;28;20022;-73
2021/04/12 10:24:27;;;;;;;1.48;1.20;;;8.30;66.00;;;;;;5012194;28;20018;-73
2021/04/12 10:26:56;;;;;;;1.70;1.10;;;8.40;66.10;;;;;;5011716;28;20022;-74
2021/04/12 10:29:40;;;;;;;1.50;0.93;;;8.40;65.60;;;;;;5012206;28;20036;-72
2021/04/12 10:32:14;;;;;;;1.33;0.90;;;8.60;65.10;;;;;;5011813;28;20018;-74
2021/04/12 10:35:03;;;;;;;1.65;0.90;;;8.60;65.10;;;;;;5012495;28;20040;-74
2021/04/12 10:37:43;;;;;;;1.27;1.10;;;8.60;64.70;;;;;;5000888;28;20053;-73
2021/04/12 10:40:29;;;;;;;0.75;0.75;;;8.60;65.00;;;;;;5010332;28;20050;-75
2021/04/12 10:43:26;;;;;;;0.93;0.80;;;8.40;65.30;;;;;;5010158;28;20026;-73
2021/04/12 10:45:55;;;;;;;1.55;0.82;;;8.20;66.10;;;;;;5010076;28;20065;-73
2021/04/12 10:48:27;;;;;;;3.03;0.70;;;8.10;66.60;;;;;;5010274;28;20030;-73
2021/04/12 10:51:32;;;;;;;0.70;0.70;;;7.90;66.50;;;;;;5011074;28;20026;-73
2021/04/12 10:54:23;;;;;;;1.23;0.85;;;7.80;66.80;;;;;;5010877;28;20026;-72
2021/04/12 10:56:51;;;;;;;1.05;0.77;;;7.80;67.10;;;;;;5010553;28;20113;-73
2021/04/12 10:59:43;;;;;;;1.38;0.90;;;7.80;66.70;;;;;;5011501;28;20092;-73
2021/04/12 11:02:30;;;;;;;0.93;0.80;;;7.70;66.60;;;;;;5010147;28;20352;-73
2021/04/12 11:05:05;;;;;;;0.65;0.63;;;7.80;66.80;;;;;;5009723;28;20364;-72
2021/04/12 11:07:57;;;;;;;0.57;0.50;;;7.80;66.50;;;;;;5011188;28;20482;-72
2021/04/12 11:10:30;;;;;;;0.70;0.70;;;7.80;66.50;;;;;;5011767;28;20018;-73
2021/04/12 11:13:21;;;;;;;0.50;0.50;;;7.80;66.50;;;;;;5010622;28;20105;-73
2021/04/12 11:15:53;;;;;;;1.02;0.80;;;8.00;66.20;;;;;;5010818;28;20026;-74
2021/04/12 11:18:42;;;;;;;0.60;0.60;;;8.00;66.20;;;;;;4993657;28;20041;-72
2021/04/12 11:21:27;;;;;;;1.75;0.60;;;8.20;66.20;;;;;;5013437;28;20426;-72
2021/04/12 11:24:20;;;;;;;1.05;0.68;;;8.50;64.60;;;;;;5014295;28;20022;-73
2021/04/12 11:27:16;;;;;;;0.80;0.80;;;8.60;64.40;;;;;;5013622;28;20331;-73
2021/04/12 11:29:48;;;;;;;1.00;0.65;;;8.80;64.20;;;;;;5014830;28;20030;-72
2021/04/12 11:32:40;;;;;;;1.08;0.60;;;9.00;64.10;;;;;;5015104;28;20044;-73
2021/04/12 11:35:55;;;;;;;0.88;0.60;;;9.10;62.80;;;;;;5014400;28;20112;-73
2021/04/12 11:38:25;;;;;;;1.88;0.65;;;9.10;61.50;;;;;;5015150;28;20030;-74
2021/04/12 11:41:05;;;;;;;1.00;0.63;;;9.00;61.70;;;;;;5014220;28;20073;-72
2021/04/12 11:43:37;;;;;;;1.83;1.08;;;9.10;62.90;;;;;;5014529;28;20478;-73
2021/04/12 11:46:12;;;;;;;1.13;0.90;;;9.10;61.90;;;;;;5014517;28;20056;-73
2021/04/12 11:48:50;;;;;;;1.85;1.02;;;9.20;62.10;;;;;;5014791;28;20040;-73
2021/04/12 11:51:23;;;;;;;0.70;0.70;;;9.20;61.70;;;;;;5014830;28;20528;-73
2021/04/12 11:53:54;;;;;;;1.90;0.80;;;9.30;62.00;;;;;;5012731;28;20101;-73
2021/04/12 11:56:43;;;;;;;1.10;0.70;;;9.60;61.90;;;;;;5014772;28;20049;-72
2021/04/12 11:59:48;;;;;;;0.90;0.60;;;9.90;61.30;;;;;;5014030;28;20041;-73
2021/04/12 12:02:39;;;;;;;1.58;1.23;;;10.20;60.00;;;;;;5014408;28;20491;-73
2021/04/12 12:05:18;;;;;;;2.30;0.82;;;10.50;58.80;;;;;;5013756;28;20018;-73
2021/04/12 12:07:48;;;;;;;3.38;0.95;;;10.70;58.80;;;;;;5014374;28;20057;-73
2021/04/12 12:10:31;;;;;;;0.68;0.60;;;11.00;58.30;;;;;;5014077;28;20488;-73
2021/04/12 12:13:22;;;;;;;1.75;0.88;;;11.00;58.50;;;;;;5013692;28;20025;-73
2021/04/12 12:16:07;;;;;;;1.40;0.70;;;10.80;58.60;;;;;;5014362;28;20072;-73
2021/04/12 12:18:45;;;;;;;0.90;0.70;;;10.60;59.10;;;;;;5013983;28;20292;-73
2021/04/12 12:21:43;;;;;;;0.82;0.70;;;10.50;58.00;;;;;;5013630;28;20026;-73
2021/04/12 12:24:15;;;;;;;1.17;0.77;;;10.20;57.70;;;;;;5013358;28;20029;-72
2021/04/12 12:26:44;;;;;;;0.98;0.77;;;10.00;58.00;;;;;;5014019;28;20030;-73
2021/04/12 12:29:47;;;;;;;0.93;0.73;;;9.90;57.60;;;;;;5013234;28;20129;-73
2021/04/12 12:32:13;;;;;;;0.50;0.50;;;9.80;55.90;;;;;;5009370;28;20541;-73
2021/04/12 12:34:54;;;;;;;0.60;0.60;;;9.60;56.10;;;;;;5013780;28;20112;-72
2021/04/12 12:37:44;;;;;;;0.60;0.60;;;9.70;56.20;;;;;;5013967;28;20026;-72
2021/04/12 12:40:16;;;;;;;0.60;0.60;;;9.60;56.10;;;;;;5012963;28;20293;-73
2021/04/12 12:42:48;;;;;;;1.35;0.90;;;9.60;56.50;;;;;;5013726;28;20104;-73
2021/04/12 12:45:26;;;;;;;4.30;0.80;;;9.60;56.80;;;;;;5012783;28;20462;-73
2021/04/12 12:47:59;;;;;;;1.15;0.73;;;9.60;57.50;;;;;;5013109;28;20036;-73
2021/04/12 12:50:32;;;;;;;1.15;0.60;;;9.40;59.30;;;;;;5013737;28;20482;-72
2021/04/12 12:53:16;;;;;;;0.93;0.75;;;9.10;61.40;;;;;;5012983;28;20030;-71
2021/04/12 12:55:50;;;;;;;1.40;0.80;;;8.70;64.10;;;;;;5013660;28;20071;-72
2021/04/12 12:58:22;;;;;;;0.50;0.50;;;8.40;66.00;;;;;;5012872;28;20119;-72
2021/04/12 13:00:52;;;;;;;1.45;0.80;;;8.10;68.20;;;;;;5013475;28;20030;-73
2021/04/12 13:03:29;;;;;;;0.70;0.70;;;7.80;69.40;;;;;;5013519;28;20026;-73
2021/04/12 13:06:11;;;;;;;1.48;0.90;;;7.60;70.60;;;;;;5012745;28;20104;-73
2021/04/12 13:08:46;;;;;;;0.80;0.70;;;7.50;71.20;;;;;;5012069;28;20037;-73
2021/04/12 13:11:12;;;;;;;1.42;0.70;;;7.40;71.80;;;;;;5012511;28;20034;-73
2021/04/12 13:13:39;;;;;;;1.67;0.70;;;7.30;72.40;;;;;;5013596;28;20105;-73
2021/04/12 13:16:17;;;;;;;0.63;0.60;;;7.30;72.30;;;;;;5012628;28;20022;-72
2021/04/12 13:19:00;;;;;;;1.42;0.70;;;7.30;72.60;;;;;;5013237;28;20109;-72
2021/04/12 13:21:30;;;;;;;0.93;0.90;;;7.40;72.50;;;;;;5013379;28;20410;-72
2021/04/12 13:23:56;;;;;;;1.38;1.00;;;7.50;72.40;;;;;;5010836;28;20080;-72
2021/04/12 13:26:49;;;;;;;1.10;1.00;;;7.60;72.70;;;;;;5012263;28;20030;-72
2021/04/12 13:29:20;;;;;;;1.48;0.90;;;7.80;72.20;;;;;;5012703;28;20121;-73
2021/04/12 13:31:54;;;;;;;2.08;1.08;;;8.00;72.00;;;;;;5013186;28;20439;-72
2021/04/12 13:34:25;;;;;;;4.55;1.00;;;7.90;71.60;;;;;;5011525;28;20028;-73
2021/04/12 13:36:53;;;;;;;;;;;8.00;71.90;;;;;;5014214;28;20041;-72
2021/04/12 13:39:38;;;;;;;1.30;0.85;;;7.80;71.90;;;;;;5011984;28;20011;-72
2021/04/12 13:42:14;;;;;;;2.95;0.80;;;7.70;71.60;;;;;;5011662;28;20093;-73
2021/04/12 13:45:08;;;;;;;0.90;0.63;;;7.60;72.00;;;;;;5012336;28;20087;-73
2021/04/12 13:47:49;;;;;;;0.50;0.50;;;7.60;71.90;;;;;;5011261;28;20475;-73
2021/04/12 13:50:21;;;;;;;1.40;0.90;;;7.70;72.00;;;;;;5012034;28;20032;-73
2021/04/12 13:53:07;;;;;;;0.82;0.70;;;7.70;71.70;;;;;;5012619;28;20053;-73
2021/04/12 13:55:53;;;;;;;1.20;0.60;;;7.70;71.90;;;;;;5011043;28;20022;-73
2021/04/12 13:58:32;;;;;;;2.30;0.70;;;7.70;71.90;;;;;;5011747;28;20061;-73
2021/04/12 14:01:13;;;;;;;0.75;0.75;;;7.60;72.00;;;;;;5011482;28;20096;-73
2021/04/12 14:03:55;;;;;;;1.20;0.80;;;7.70;72.20;;;;;;5012658;28;20462;-73
2021/04/12 14:06:27;;;;;;;0.60;0.60;;;7.70;72.30;;;;;;5011329;28;20037;-72
2021/04/12 14:08:56;;;;;;;0.98;0.63;;;7.70;72.30;;;;;;5012241;28;20046;-73
2021/04/12 14:11:25;;;;;;;1.00;0.70;;;7.70;72.50;;;;;;5011803;28;20040;-72
2021/04/12 14:14:23;;;;;;;0.73;0.70;;;7.80;72.40;;;;;;5012144;28;20079;-72
2021/04/12 14:17:05;;;;;;;0.88;0.82;;;7.90;72.40;;;;;;5007324;28;20034;-72
2021/04/12 14:19:46;;;;;;;1.95;0.80;;;8.10;72.30;;;;;;5011940;28;20080;-72
2021/04/12 14:22:30;;;;;;;1.00;0.60;;;8.20;71.10;;;;;;5011439;28;20045;-72
2021/04/12 14:25:28;;;;;;;1.02;0.70;;;8.30;70.60;;;;;;5012192;28;20029;-72
2021/04/12 14:28:12;;;;;;;2.83;0.85;;;8.40;70.50;;;;;;5012010;28;20030;-73
2021/04/12 14:31:09;;;;;;;0.73;0.50;;;8.60;69.60;;;;;;5010898;28;20078;-72
2021/04/12 14:33:41;;;;;;;1.30;0.80;;;8.90;69.30;;;;;;5009016;28;20103;-73
2021/04/12 14:36:12;;;;;;;0.90;0.73;;;9.20;68.70;;;;;;5010085;28;20026;-72